Etusivu
METAR-TAF:

METAR-TAF

Lentoasemat :

Jersey,

Leveyspiiri: 49-13N, Pituuspiiri: 002-12W, korkeus merenpinnasta: 84 m

Tämänhetkinen sää

Tämä raportti tehtiin 31 minuuttia sitten, kello 06.50 UTC
Tuuli 7 kn lounaasta
Lämpötila 6°C
Kosteus 93%
Ilmanpaine 1020 hPa
Näkyvyys 10 km tai enemmän
Muutamia pilviä 600 ft:n korkeudessa

METAR: EGJJ 190650Z 23007KT 9999 FEW006 06/05 Q1020

Aika: 07:21 (07:21 UTC)

Sääennuste

Tämä raportti tehtiin 2 tuntia ja 26 minuuttia sitten, kello 04.55 UTC
Ennuste voimassa 19. päivästä klo 06 UTC - 19. päivään klo 15 UTC
Tuuli 7 kn lounaasta
Näkyvyys 10 km tai enemmän
Muutamia pilviä 2200 ft:n korkeudessa

TAF: EGJJ 190455Z 1906/1915 23007KT 9999 FEW022

Säähavainnot ja -ennusteet yli 4000 lentoasemalta (METAR- ja TAF-raportit).

Käytössä olevat sääasemat on merkitty karttaan keltaisilla ja punaisilla pisteillä.

Aseta hiiri pisteen päälle nähdäksesi sääaseman nimen.

Klikkaa sitten nähdäksesi säähavainnot ja -ennusteet.

Kartan vaihtaminen: klikkaa mustalla rastilla varustettuja vihreitä pisteitä, niin voit zoomata sisään; viivalla varustettua vihreää pistettä, niin voit zoomata ulos tai vihreitä nuolia, niin pääset viereisille kartoille.


METAR-TAF: